Time;durP1;ratioP1;P1;durP2;ratioP2;P2;SDS_P1;SDS_P2;PMS_P1;PMS_P2;Temp;Humidity;BMP_temperature;BMP_pressure;BME280_temperature;BME280_humidity;BME280_pressure;Samples;Min_cycle;Max_cycle;Signal;HPM_P1;HPM_P2
2021/07/28 00:00:47;;;;;;;13.43;6.70;;;;;;;20.85;73.47;100501.97;5065221;28;20293;-69
2021/07/28 00:03:20;;;;;;;11.07;6.73;;;;;;;20.88;72.94;100500.75;5047588;28;20202;-67
2021/07/28 00:05:50;;;;;;;18.30;8.93;;;;;;;20.88;72.94;100496.16;5065449;28;20201;-67
2021/07/28 00:08:20;;;;;;;14.27;7.93;;;;;;;20.86;73.38;100494.63;5045937;28;20236;-67
2021/07/28 00:10:48;;;;;;;15.20;8.70;;;;;;;20.84;73.44;100491.22;5049228;28;20547;-67
2021/07/28 00:13:16;;;;;;;15.33;8.87;;;;;;;20.85;73.58;100493.78;5049159;28;20209;-67
2021/07/28 00:15:44;;;;;;;14.90;8.33;;;;;;;20.87;73.62;100488.13;5049244;28;20733;-68
2021/07/28 00:18:20;;;;;;;16.83;8.67;;;;;;;20.87;73.82;100483.53;5045806;28;20563;-67
2021/07/28 00:23:35;;;;;;;13.93;9.20;;;;;;;20.74;75.37;100480.50;5044800;28;20783;-67
2021/07/28 00:26:03;;;;;;;13.30;8.87;;;;;;;20.74;74.95;100477.75;5047370;28;20214;-67
2021/07/28 00:28:31;;;;;;;15.47;9.07;;;;;;;20.74;73.67;100475.03;5048600;28;20236;-67
2021/07/28 00:30:59;;;;;;;13.20;8.53;;;;;;;20.73;73.97;100471.44;5048572;28;20194;-67
2021/07/28 00:33:27;;;;;;;14.07;8.63;;;;;;;20.72;73.95;100475.22;5049821;28;20198;-68
2021/07/28 00:35:57;;;;;;;13.80;8.97;;;;;;;20.65;75.00;100476.94;5048618;28;20206;-68
2021/07/28 00:38:25;;;;;;;13.63;9.30;;;;;;;20.49;76.21;100481.59;5047830;28;20208;-68
2021/07/28 00:40:53;;;;;;;16.63;10.07;;;;;;;20.49;75.51;100493.34;5048460;28;20206;-68
2021/07/28 00:43:24;;;;;;;13.60;8.87;;;;;;;20.49;74.90;100481.59;5048501;28;20201;-68
2021/07/28 00:45:53;;;;;;;13.53;9.03;;;;;;;20.49;73.90;100476.13;5060500;28;20431;-67
2021/07/28 00:48:21;;;;;;;13.23;8.33;;;;;;;20.48;73.44;100483.47;5048576;28;20202;-67
2021/07/28 00:50:49;;;;;;;14.47;8.83;;;;;;;20.44;73.12;100476.66;5049095;28;20675;-68
2021/07/28 00:53:20;;;;;;;15.07;9.10;;;;;;;20.44;74.18;100482.13;5050503;28;20201;-68
2021/07/28 00:55:49;;;;;;;15.53;9.80;;;;;;;20.36;75.09;100482.97;5050823;28;20211;-68
2021/07/28 00:58:19;;;;;;;15.77;8.97;;;;;;;20.21;76.23;100487.44;5050742;28;20212;-68
2021/07/28 01:00:47;;;;;;;14.10;8.87;;;;;;;20.29;74.39;100486.56;5050489;28;20205;-68
2021/07/28 01:03:16;;;;;;;15.47;9.40;;;;;;;20.32;74.21;100483.47;5050797;28;20208;-68
2021/07/28 01:05:44;;;;;;;14.87;9.57;;;;;;;20.37;74.10;100478.34;5050528;28;20225;-68
2021/07/28 01:08:12;;;;;;;17.70;10.03;;;;;;;20.34;74.29;100467.78;5049616;28;20675;-68
2021/07/28 01:10:42;;;;;;;16.47;10.33;;;;;;;20.35;75.11;100474.94;5049888;28;20701;-68
2021/07/28 01:13:10;;;;;;;17.50;9.57;;;;;;;20.33;74.93;100471.53;5050432;28;20293;-68
2021/07/28 01:15:42;;;;;;;19.57;9.83;;;;;;;20.35;74.71;100477.69;5050446;28;20686;-68
2021/07/28 01:18:14;;;;;;;16.57;9.73;;;;;;;20.35;75.19;100469.50;5050665;28;20206;-68
2021/07/28 01:20:43;;;;;;;15.63;10.00;;;;;;;20.09;75.50;100429.66;5050623;28;20285;-68
2021/07/28 01:23:20;;;;;;;14.70;9.77;;;;;;;20.34;75.29;100465.91;5049368;28;20569;-68
2021/07/28 01:25:49;;;;;;;19.73;10.17;;;;;;;20.36;74.71;100465.75;5036537;28;20190;-68
2021/07/28 01:28:17;;;;;;;14.87;9.37;;;;;;;20.33;74.46;100456.03;5049941;28;20679;-68
2021/07/28 01:30:47;;;;;;;14.93;9.43;;;;;;;20.39;74.40;100462.66;5048148;28;20587;-68
2021/07/28 01:33:15;;;;;;;15.13;9.70;;;;;;;20.37;74.65;100462.84;5047372;28;20563;-68
2021/07/28 01:35:43;;;;;;;19.93;10.23;;;;;;;20.25;75.46;100431.50;5036950;28;20296;-68
2021/07/28 01:38:11;;;;;;;14.73;9.50;;;;;;;20.36;74.73;100455.69;5047331;28;20698;-67
2021/07/28 01:40:41;;;;;;;14.10;9.53;;;;;;;20.36;74.62;100457.56;5044537;28;20709;-68
2021/07/28 01:43:15;;;;;;;14.83;9.70;;;;;;;20.33;74.74;100450.56;5038248;28;20198;-68
2021/07/28 01:45:43;;;;;;;14.07;9.30;;;;;;;20.35;74.73;100450.41;5047887;28;20205;-68
2021/07/28 01:48:11;;;;;;;16.67;9.13;;;;;;;20.36;74.47;100433.00;5045956;28;20186;-68
2021/07/28 01:50:40;;;;;;;14.50;9.60;;;;;;;20.35;73.91;100434.88;5043793;28;20651;-68
2021/07/28 01:53:08;;;;;;;15.90;9.70;;;;;;;20.18;74.58;100405.94;5047640;28;20285;-68
2021/07/28 01:55:36;;;;;;;14.07;9.50;;;;;;;20.34;74.21;100435.06;5046376;28;20202;-68
2021/07/28 01:58:05;;;;;;;16.53;9.27;;;;;;;20.00;74.49;100373.44;5034633;28;21556;-68
2021/07/28 02:00:34;;;;;;;17.00;10.17;;;;;;;20.32;73.94;100432.50;5048053;28;20236;-68
2021/07/28 02:03:03;;;;;;;15.93;9.80;;;;;;;20.33;74.01;100431.47;5046191;28;20205;-69
2021/07/28 02:05:31;;;;;;;16.77;10.17;;;;;;;20.32;74.25;100437.13;5046578;28;20209;-68
2021/07/28 02:08:03;;;;;;;16.80;10.20;;;;;;;20.30;74.64;100439.16;5044130;28;20269;-68
2021/07/28 02:10:31;;;;;;;23.57;10.40;;;;;;;20.28;74.66;100436.63;5044886;28;20202;-68
2021/07/28 02:13:00;;;;;;;17.33;10.27;;;;;;;20.27;75.19;100437.63;5043404;28;20569;-68
2021/07/28 02:15:32;;;;;;;18.93;10.30;;;;;;;20.28;74.93;100431.16;5046954;28;20197;-68
2021/07/28 02:18:00;;;;;;;16.90;10.07;;;;;;;20.26;75.07;100419.56;5047381;28;20222;-68
2021/07/28 02:20:29;;;;;;;15.83;9.60;;;;;;;20.31;74.49;100428.06;5062971;28;20267;-68
2021/07/28 02:22:57;;;;;;;13.87;8.77;;;;;;;20.19;74.71;100409.50;5047572;28;20208;-68
2021/07/28 02:25:26;;;;;;;13.90;8.97;;;;;;;20.34;74.65;100435.06;5045312;28;20206;-68
2021/07/28 02:27:54;;;;;;;17.03;9.73;;;;;;;20.34;74.67;100424.16;5052377;28;20297;-68
2021/07/28 02:30:22;;;;;;;20.37;10.40;;;;;;;20.32;75.46;100423.47;5040532;28;20582;-68
2021/07/28 02:32:52;;;;;;;14.77;9.60;;;;;;;20.26;75.47;100419.56;5044539;28;20273;-68
2021/07/28 02:35:20;;;;;;;17.50;9.70;;;;;;;20.35;75.33;100425.84;5043978;28;20638;-68
2021/07/28 02:37:48;;;;;;;15.10;9.27;;;;;;;20.36;74.01;100417.47;5036198;28;20218;-68
2021/07/28 02:40:18;;;;;;;13.97;9.37;;;;;;;20.20;73.09;100373.88;5035287;28;20710;-68
2021/07/28 02:42:46;;;;;;;13.50;8.70;;;;;;;20.46;72.94;100409.97;5045480;28;20217;-68
2021/07/28 02:45:14;;;;;;;13.43;8.73;;;;;;;20.42;73.21;100400.44;5041172;28;20194;-68
2021/07/28 02:47:43;;;;;;;15.13;8.77;;;;;;;20.52;72.24;100415.78;5047672;28;20205;-68
2021/07/28 02:50:13;;;;;;;13.47;8.70;;;;;;;20.41;72.72;100392.44;5049574;28;20209;-68
2021/07/28 02:52:41;;;;;;;12.93;8.93;;;;;;;20.45;73.84;100402.81;5051277;28;20193;-68
2021/07/28 02:55:11;;;;;;;13.20;9.20;;;;;;;20.47;74.04;100413.56;5051722;28;20213;-68
2021/07/28 02:57:39;;;;;;;13.60;9.00;;;;;;;20.48;73.67;100403.50;5062198;28;20292;-68
2021/07/28 03:00:09;;;;;;;14.70;9.03;;;;;;;20.49;73.40;100405.19;5050896;28;20205;-68
2021/07/28 03:02:37;;;;;;;13.43;9.00;;;;;;;20.14;73.29;100337.25;5049527;28;20206;-68
2021/07/28 03:05:06;;;;;;;15.13;8.43;;;;;;;20.55;73.08;100412.69;5049746;28;20205;-68
2021/07/28 03:07:36;;;;;;;13.67;8.67;;;;;;;20.56;72.93;100407.06;5051382;28;20681;-68
2021/07/28 03:10:05;;;;;;;12.77;9.23;;;;;;;20.23;74.23;100357.19;5049520;28;20206;-68
2021/07/28 03:12:33;;;;;;;14.50;9.23;;;;;;;20.53;74.83;100407.41;5047358;28;20251;-68
2021/07/28 03:15:02;;;;;;;12.13;8.50;;;;;;;20.53;75.10;100403.84;5041834;28;20609;-68
2021/07/28 03:17:30;;;;;;;14.60;9.57;;;;;;;20.50;75.18;100396.81;5051190;28;20226;-67
2021/07/28 03:19:59;;;;;;;15.23;9.13;;;;;;;20.56;74.73;100401.59;5050415;28;20196;-68
2021/07/28 03:22:27;;;;;;;15.30;9.53;;;;;;;20.55;75.63;100394.44;5043110;28;20206;-68
2021/07/28 03:24:57;;;;;;;14.43;9.57;;;;;;;20.53;75.68;100406.56;5049748;28;20224;-68
2021/07/28 03:27:25;;;;;;;16.83;9.47;;;;;;;20.36;75.96;100378.44;5050967;28;20186;-67
2021/07/28 03:29:53;;;;;;;15.53;9.70;;;;;;;20.39;77.61;100398.03;5048308;28;20233;-68
2021/07/28 03:32:21;;;;;;;16.93;10.23;;;;;;;20.38;77.43;100407.25;5050091;28;20209;-66
2021/07/28 03:34:49;;;;;;;15.63;9.83;;;;;;;20.38;78.33;100400.94;5046577;28;20186;-68
2021/07/28 03:37:18;;;;;;;14.13;9.60;;;;;;;20.35;78.32;100406.75;5044860;28;20580;-67
2021/07/28 03:39:46;;;;;;;17.13;10.10;;;;;;;20.41;77.47;100408.81;5047369;28;20206;-67
2021/07/28 03:42:15;;;;;;;18.67;9.40;;;;;;;20.46;77.54;100412.69;5048552;28;20530;-68
2021/07/28 03:44:43;;;;;;;15.70;9.83;;;;;;;20.51;77.08;100408.59;5049025;28;20575;-68
2021/07/28 03:47:11;;;;;;;18.27;10.30;;;;;;;20.52;77.46;100413.91;5048338;28;20198;-67
2021/07/28 03:49:39;;;;;;;13.97;8.63;;;;;;;20.57;76.82;100408.75;5045959;28;20202;-67
2021/07/28 03:52:08;;;;;;;13.37;8.50;;;;;;;20.60;75.58;100402.94;5050363;28;20544;-68
2021/07/28 03:54:36;;;;;;;13.03;7.70;;;;;;;20.65;76.07;100411.44;5041150;28;20728;-68
2021/07/28 03:57:04;;;;;;;11.90;7.43;;;;;;;20.68;75.64;100411.09;5049986;28;20565;-68
2021/07/28 03:59:34;;;;;;;11.77;7.97;;;;;;;20.56;75.26;100389.84;5044258;28;20233;-68
2021/07/28 04:02:02;;;;;;;10.70;7.53;;;;;;;20.73;75.93;100405.09;5042878;28;20693;-68
2021/07/28 04:04:30;;;;;;;12.50;7.40;;;;;;;20.73;75.38;100400.47;5043176;28;20212;-68
2021/07/28 04:06:59;;;;;;;11.40;7.60;;;;;;;20.80;75.13;100410.69;5052902;28;20194;-68
2021/07/28 04:09:27;;;;;;;13.53;7.20;;;;;;;20.83;74.94;100415.81;5046493;28;20194;-68
2021/07/28 04:11:55;;;;;;;12.73;7.23;;;;;;;20.78;75.35;100402.66;5050122;28;20202;-68
2021/07/28 04:14:23;;;;;;;13.80;8.20;;;;;;;20.83;75.62;100410.34;5045980;28;20297;-68
2021/07/28 04:16:53;;;;;;;14.20;8.60;;;;;;;20.81;76.88;100405.03;5047605;28;20202;-69
2021/07/28 04:19:21;;;;;;;15.77;9.43;;;;;;;20.81;77.71;100402.31;5046286;28;20214;-67
2021/07/28 04:21:49;;;;;;;13.67;8.47;;;;;;;20.89;76.58;100406.91;5048779;28;20194;-66
2021/07/28 04:24:17;;;;;;;16.20;8.70;;;;;;;20.92;76.65;100401.94;5049344;28;20194;-66
2021/07/28 04:26:45;;;;;;;13.20;8.60;;;;;;;20.94;77.55;100396.28;5047723;28;20665;-67
2021/07/28 04:29:13;;;;;;;14.07;8.57;;;;;;;20.95;76.65;100381.59;5049073;28;20309;-67
2021/07/28 04:31:42;;;;;;;12.50;8.40;;;;;;;21.02;76.86;100380.69;5046664;28;20280;-66
2021/07/28 04:34:11;;;;;;;12.23;8.23;;;;;;;21.06;77.30;100372.97;5048172;28;20285;-67
2021/07/28 04:36:40;;;;;;;11.97;8.47;;;;;;;21.12;77.12;100374.97;5045808;28;20213;-67
2021/07/28 04:39:08;;;;;;;12.63;7.67;;;;;;;21.14;76.62;100372.09;5059533;28;20702;-67
2021/07/28 04:41:36;;;;;;;11.87;8.10;;;;;;;21.20;75.59;100374.94;5035426;28;20296;-66
2021/07/28 04:44:05;;;;;;;11.23;7.67;;;;;;;21.22;75.93;100367.41;5047927;28;20226;-67
2021/07/28 04:46:33;;;;;;;11.07;7.63;;;;;;;21.24;74.92;100370.84;5045505;28;20208;-67
2021/07/28 04:49:01;;;;;;;11.70;7.43;;;;;;;21.25;74.34;100367.09;5046091;28;20271;-67
2021/07/28 04:51:31;;;;;;;12.07;7.67;;;;;;;21.30;73.39;100372.84;5046882;28;20312;-67
2021/07/28 04:53:59;;;;;;;14.90;7.90;;;;;;;21.33;74.17;100377.09;5047348;28;20202;-67
2021/07/28 04:56:27;;;;;;;13.10;7.70;;;;;;;21.35;74.04;100369.56;5047504;28;20275;-68
2021/07/28 04:58:56;;;;;;;10.73;7.37;;;;;;;21.41;74.22;100376.16;5047914;28;20302;-69
2021/07/28 05:01:24;;;;;;;10.83;7.40;;;;;;;21.47;73.58;100368.13;5048305;28;20191;-68
2021/07/28 05:03:53;;;;;;;12.77;6.60;;;;;;;21.50;73.00;100361.44;5041393;28;20206;-68
2021/07/28 05:06:21;;;;;;;12.43;7.43;;;;;;;21.60;73.32;100370.22;5040609;28;20206;-68
2021/07/28 05:08:50;;;;;;;10.50;7.37;;;;;;;21.59;72.94;100360.31;5040692;28;20573;-68
2021/07/28 05:11:19;;;;;;;10.00;6.90;;;;;;;21.66;73.86;100370.31;5049975;28;20209;-68
2021/07/28 05:13:47;;;;;;;13.90;7.33;;;;;;;21.73;74.05;100369.56;5039523;28;20206;-68
2021/07/28 05:16:15;;;;;;;9.57;6.37;;;;;;;21.78;73.02;100373.47;5040669;28;20633;-68
2021/07/28 05:18:43;;;;;;;7.60;5.73;;;;;;;21.79;73.64;100369.69;5044664;28;20291;-68
2021/07/28 05:21:11;;;;;;;9.87;6.80;;;;;;;21.83;73.58;100378.38;5050801;28;20205;-68
2021/07/28 05:23:39;;;;;;;8.57;6.40;;;;;;;21.81;74.58;100375.84;5040668;28;20193;-68
2021/07/28 05:26:09;;;;;;;9.40;6.43;;;;;;;21.81;74.66;100375.84;5041375;28;20670;-66
2021/07/28 05:28:37;;;;;;;8.77;6.40;;;;;;;21.73;74.75;100367.69;5041147;28;20634;-67
2021/07/28 05:31:05;;;;;;;8.13;5.87;;;;;;;21.73;74.77;100355.91;5040338;28;20679;-67
2021/07/28 05:33:33;;;;;;;9.07;6.40;;;;;;;21.78;74.91;100364.41;5040633;28;20239;-66
2021/07/28 05:36:01;;;;;;;8.37;5.80;;;;;;;21.40;75.16;100320.69;5040391;28;20325;-67
2021/07/28 05:38:29;;;;;;;8.83;5.63;;;;;;;21.46;75.90;100352.75;5040453;28;20744;-66
2021/07/28 05:40:58;;;;;;;8.33;5.33;;;;;;;21.18;75.56;100325.13;5039942;28;20202;-68
2021/07/28 05:43:27;;;;;;;9.00;5.17;;;;;;;20.99;74.79;100284.63;5040448;28;20201;-66
2021/07/28 05:45:55;;;;;;;8.73;5.80;;;;;;;21.53;74.56;100341.94;5040081;28;20204;-66
2021/07/28 05:48:23;;;;;;;7.20;5.47;;;;;;;21.72;74.12;100365.13;5039194;28;20675;-67
2021/07/28 05:50:52;;;;;;;7.37;5.90;;;;;;;21.84;73.66;100355.47;5039966;28;20205;-66
2021/07/28 05:53:20;;;;;;;7.50;5.17;;;;;;;22.16;72.54;100360.63;5040139;28;20689;-66
2021/07/28 05:55:48;;;;;;;9.43;5.83;;;;;;;22.36;71.68;100369.13;5045649;28;20225;-66
2021/07/28 05:58:16;;;;;;;7.67;5.40;;;;;;;22.56;70.92;100367.47;5046745;28;20216;-67
2021/07/28 06:00:45;;;;;;;7.17;5.40;;;;;;;22.80;68.69;100370.91;5039263;28;20687;-67
2021/07/28 06:03:13;;;;;;;8.10;5.47;;;;;;;22.99;68.84;100370.34;5046769;28;20206;-67
2021/07/28 06:05:42;;;;;;;7.10;5.07;;;;;;;23.16;69.33;100362.72;5049156;28;20194;-66
2021/07/28 06:08:10;;;;;;;7.20;5.00;;;;;;;23.43;69.26;100361.94;5044960;28;20309;-66
2021/07/28 06:10:38;;;;;;;7.80;5.47;;;;;;;23.70;69.26;100367.69;5037925;28;20391;-67
2021/07/28 06:13:06;;;;;;;6.13;4.80;;;;;;;23.96;68.33;100350.56;5036189;28;20340;-66
2021/07/28 06:15:34;;;;;;;6.30;4.73;;;;;;;24.11;68.36;100356.78;5042414;28;20685;-66
2021/07/28 06:18:04;;;;;;;7.10;5.30;;;;;;;24.19;68.27;100329.19;5041112;28;20198;-67
2021/07/28 06:20:32;;;;;;;7.70;5.27;;;;;;;24.45;67.57;100350.44;5038797;28;20698;-66
2021/07/28 06:23:00;;;;;;;6.10;5.00;;;;;;;24.67;66.63;100353.94;5042251;28;20702;-66
2021/07/28 06:25:28;;;;;;;5.70;4.90;;;;;;;24.62;66.85;100345.47;5046699;28;20300;-66
2021/07/28 06:27:56;;;;;;;6.57;5.00;;;;;;;24.85;67.04;100350.63;5049517;28;20198;-66
2021/07/28 06:30:25;;;;;;;7.50;5.30;;;;;;;24.92;65.49;100355.09;5051535;28;20513;-66
2021/07/28 06:32:53;;;;;;;6.30;5.00;;;;;;;24.81;65.46;100358.44;5050547;28;20662;-67
2021/07/28 06:35:22;;;;;;;4.90;4.23;;;;;;;25.00;65.13;100360.41;5062020;28;20198;-66
2021/07/28 06:37:50;;;;;;;10.63;5.03;;;;;;;25.00;64.92;100360.41;5046165;28;20205;-67
2021/07/28 06:40:19;;;;;;;5.88;4.45;;;;;;;25.42;64.49;100363.06;5045794;28;20225;-66
2021/07/28 06:42:47;;;;;;;5.88;4.70;;;;;;;25.63;64.08;100360.94;5049868;28;20833;-66
2021/07/28 06:45:15;;;;;;;5.35;4.50;;;;;;;25.76;63.73;100364.78;5048256;28;20226;-66
2021/07/28 06:47:44;;;;;;;5.82;4.25;;;;;;;26.03;62.64;100357.34;5049111;28;20206;-67
2021/07/28 06:50:12;;;;;;;5.57;4.53;;;;;;;26.30;62.69;100361.72;5049570;28;20277;-67
2021/07/28 06:52:41;;;;;;;5.03;4.22;;;;;;;26.67;61.15;100359.31;5050717;28;20202;-66
2021/07/28 06:55:10;;;;;;;4.68;3.88;;;;;;;27.07;60.59;100358.06;5048613;28;20202;-66
2021/07/28 06:57:38;;;;;;;4.97;3.90;;;;;;;27.34;59.97;100349.63;5047589;28;20222;-67
2021/07/28 07:00:07;;;;;;;4.45;3.83;;;;;;;27.65;57.32;100344.09;5045226;28;20591;-67
2021/07/28 07:02:35;;;;;;;5.15;4.03;;;;;;;28.07;54.35;100350.69;5050468;28;20210;-67
2021/07/28 07:05:04;;;;;;;4.22;3.58;;;;;;;28.05;55.13;100327.97;5048210;28;20193;-67
2021/07/28 07:07:33;;;;;;;4.30;3.58;;;;;;;28.18;53.64;100353.78;5050838;28;20206;-67
2021/07/28 07:10:05;;;;;;;4.65;3.90;;;;;;;27.98;54.66;100346.53;5050358;28;20540;-67
2021/07/28 07:12:33;;;;;;;4.32;3.70;;;;;;;28.24;55.22;100358.41;5065145;28;20774;-67
2021/07/28 07:15:01;;;;;;;4.47;3.70;;;;;;;28.59;54.31;100350.38;5050806;28;20206;-67
2021/07/28 07:17:29;;;;;;;4.10;3.70;;;;;;;28.64;54.10;100359.66;5050660;28;20377;-67
2021/07/28 07:19:58;;;;;;;5.03;4.40;;;;;;;28.82;54.13;100355.19;5058287;28;20249;-67
2021/07/28 07:22:27;;;;;;;9.45;4.38;;;;;;;29.05;53.57;100363.59;5049622;28;20206;-67
2021/07/28 07:24:56;;;;;;;4.75;4.13;;;;;;;29.40;52.32;100360.13;5045491;28;20213;-67
2021/07/28 07:27:26;;;;;;;5.82;4.28;;;;;;;29.33;52.05;100336.13;5050549;28;20210;-68
2021/07/28 07:29:55;;;;;;;5.38;4.20;;;;;;;29.83;51.59;100355.16;5046772;28;20218;-68
2021/07/28 07:32:29;;;;;;;4.75;4.00;;;;;;;29.82;51.77;100358.16;5046936;28;20240;-67
2021/07/28 07:34:57;;;;;;;5.20;4.50;;;;;;;29.43;51.07;100335.59;5048137;28;20242;-67
2021/07/28 07:37:25;;;;;;;4.60;3.70;;;;;;;29.75;50.65;100363.81;5048751;28;20599;-67
2021/07/28 07:39:54;;;;;;;4.93;3.70;;;;;;;30.13;49.65;100357.84;5050178;28;20263;-67
2021/07/28 07:42:22;;;;;;;5.28;4.13;;;;;;;30.25;48.92;100355.03;5050077;28;20663;-68
2021/07/28 07:44:56;;;;;;;4.97;3.63;;;;;;;30.43;48.86;100354.91;5049571;28;20225;-68
2021/07/28 07:47:24;;;;;;;5.03;4.00;;;;;;;30.75;47.78;100354.50;5050179;28;20204;-68
2021/07/28 07:49:53;;;;;;;4.70;3.88;;;;;;;30.94;46.40;100356.00;5052078;28;20590;-68
2021/07/28 07:52:21;;;;;;;4.07;3.67;;;;;;;31.02;46.94;100355.59;5051453;28;20221;-68
2021/07/28 07:54:49;;;;;;;5.18;4.18;;;;;;;31.06;47.14;100356.78;5050900;28;20190;-68
2021/07/28 07:57:17;;;;;;;4.57;4.10;;;;;;;30.98;47.74;100348.03;5050818;28;20553;-68
2021/07/28 07:59:45;;;;;;;4.10;3.67;;;;;;;30.81;46.93;100342.41;5050029;28;20205;-68
2021/07/28 08:02:14;;;;;;;4.25;3.45;;;;;;;31.15;46.55;100341.41;5050728;28;20197;-68
2021/07/28 08:04:43;;;;;;;3.97;3.53;;;;;;;31.30;46.13;100345.59;5049662;28;20244;-67
2021/07/28 08:07:11;;;;;;;3.83;3.45;;;;;;;31.49;45.66;100344.25;5047912;28;20584;-67
2021/07/28 08:09:39;;;;;;;4.28;3.88;;;;;;;31.49;45.79;100338.72;5049936;28;20210;-67
2021/07/28 08:12:07;;;;;;;4.75;3.70;;;;;;;31.50;46.22;100343.16;5045684;28;20198;-66
2021/07/28 08:14:35;;;;;;;6.68;4.07;;;;;;;31.57;46.22;100340.25;5047501;28;20205;-65
2021/07/28 08:17:04;;;;;;;4.95;4.30;;;;;;;31.45;46.13;100340.31;5048674;28;20216;-68
2021/07/28 08:19:34;;;;;;;4.32;3.83;;;;;;;31.00;46.09;100313.41;5048921;28;20190;-68
2021/07/28 08:22:02;;;;;;;4.28;3.85;;;;;;;31.22;45.88;100343.22;5048101;28;20658;-68
2021/07/28 08:24:30;;;;;;;4.65;4.13;;;;;;;30.78;45.88;100340.97;5047232;28;20301;-67
2021/07/28 08:26:59;;;;;;;4.63;3.97;;;;;;;30.80;46.38;100347.13;5048257;28;20216;-67
2021/07/28 08:29:27;;;;;;;5.93;3.70;;;;;;;31.10;46.09;100341.31;5048898;28;20230;-66
2021/07/28 08:31:55;;;;;;;4.30;3.80;;;;;;;30.98;46.14;100346.09;5048562;28;20202;-66
2021/07/28 08:34:23;;;;;;;4.18;3.78;;;;;;;31.08;46.44;100343.50;5046973;28;20237;-69
2021/07/28 08:36:53;;;;;;;5.75;4.30;;;;;;;31.24;46.21;100352.16;5049100;28;20198;-69
2021/07/28 08:39:21;;;;;;;4.90;4.13;;;;;;;30.74;46.66;100336.19;5047189;28;20248;-69
2021/07/28 08:41:51;;;;;;;4.75;4.18;;;;;;;31.10;46.18;100346.88;5052868;28;20235;-68
2021/07/28 08:44:21;;;;;;;4.72;4.18;;;;;;;31.48;45.29;100342.59;5049240;28;20560;-70
2021/07/28 08:46:53;;;;;;;4.32;3.80;;;;;;;31.69;44.57;100346.56;5045641;28;20669;-67
2021/07/28 08:49:22;;;;;;;4.53;4.10;;;;;;;31.72;44.16;100337.75;5047187;28;20192;-67
2021/07/28 08:51:51;;;;;;;5.28;4.30;;;;;;;32.04;43.50;100337.97;5049303;28;20194;-66
2021/07/28 08:54:21;;;;;;;4.82;4.10;;;;;;;32.01;43.57;100344.03;5047860;28;20198;-67
2021/07/28 08:56:49;;;;;;;4.85;3.85;;;;;;;32.21;42.46;100338.78;5046895;28;20193;-67
2021/07/28 08:59:25;;;;;;;6.65;3.80;;;;;;;32.24;42.23;100338.25;5047958;28;20210;-68
2021/07/28 09:01:54;;;;;;;4.60;3.80;;;;;;;32.18;42.33;100324.56;5047929;28;20304;-69
2021/07/28 09:04:23;;;;;;;4.45;4.00;;;;;;;31.99;42.46;100318.44;5046659;28;20202;-70
2021/07/28 09:06:51;;;;;;;5.28;4.18;;;;;;;31.96;43.26;100324.50;5041221;28;20248;-67
2021/07/28 09:09:21;;;;;;;5.00;4.25;;;;;;;31.69;43.58;100327.09;5036971;28;20288;-67
2021/07/28 09:11:54;;;;;;;4.20;3.80;;;;;;;31.95;42.74;100322.81;5040562;28;20784;-67
2021/07/28 09:14:25;;;;;;;4.18;3.78;;;;;;;31.95;43.37;100315.34;5043697;28;20198;-67
2021/07/28 09:16:54;;;;;;;5.47;4.18;;;;;;;31.80;43.50;100318.72;5041587;28;20202;-66
2021/07/28 09:19:42;;;;;;;6.50;4.13;;;;;;;31.97;42.39;100313.13;5063037;28;20204;-67
2021/07/28 09:22:18;;;;;;;4.43;3.97;;;;;;;31.16;43.94;100261.81;5045393;28;20228;-68
2021/07/28 09:25:07;;;;;;;4.85;4.03;;;;;;;31.70;42.46;100304.63;5046871;28;20610;-68
2021/07/28 09:27:40;;;;;;;4.88;4.05;;;;;;;31.61;43.43;100314.50;5046482;28;20240;-69
2021/07/28 09:30:14;;;;;;;5.95;3.70;;;;;;;31.50;43.89;100302.38;5047229;28;20198;-69
2021/07/28 09:33:03;;;;;;;6.65;3.40;;;;;;;31.65;43.01;100310.13;5045584;28;20200;-69
2021/07/28 09:36:08;;;;;;;4.70;3.83;;;;;;;31.31;43.33;100309.28;5063269;28;20209;-69
2021/07/28 09:38:37;;;;;;;4.10;3.70;;;;;;;31.42;43.29;100299.16;5049358;28;20567;-68
2021/07/28 09:41:17;;;;;;;4.65;3.53;;;;;;;31.44;43.64;100297.81;5044460;28;20217;-68
2021/07/28 09:43:50;;;;;;;4.40;3.70;;;;;;;31.62;43.47;100305.06;5050551;28;20565;-70
2021/07/28 09:46:27;;;;;;;4.10;3.00;;;;;;;32.00;41.25;100301.50;5050241;28;20280;-69
2021/07/28 09:48:57;;;;;;;4.88;3.40;;;;;;;32.03;41.37;100289.03;5050107;28;20288;-69
2021/07/28 09:51:32;;;;;;;3.42;3.13;;;;;;;32.27;40.53;100289.69;5048194;28;20198;-69
2021/07/28 09:54:02;;;;;;;3.95;3.20;;;;;;;32.49;40.08;100306.38;5042421;28;20218;-68
2021/07/28 09:56:40;;;;;;;3.47;2.83;;;;;;;32.34;39.44;100296.72;5046431;28;20216;-69
2021/07/28 09:59:08;;;;;;;3.60;3.10;;;;;;;32.28;40.60;100306.09;5049782;28;20193;-70
2021/07/28 10:01:37;;;;;;;3.38;2.90;;;;;;;32.03;40.61;100306.56;5051677;28;20444;-70
2021/07/28 10:04:07;;;;;;;2.92;2.60;;;;;;;31.90;40.36;100306.09;5051294;28;20760;-70
2021/07/28 10:06:41;;;;;;;2.30;2.13;;;;;;;31.81;40.09;100300.09;5040999;28;20290;-70
2021/07/28 10:09:11;;;;;;;2.78;2.50;;;;;;;31.68;40.86;100320.72;5050961;28;20720;-70
2021/07/28 10:11:43;;;;;;;2.78;2.50;;;;;;;31.87;40.58;100317.72;5049737;28;20222;-70
2021/07/28 10:14:15;;;;;;;2.92;2.55;;;;;;;31.58;40.81;100308.59;5052047;28;20212;-69
2021/07/28 10:16:43;;;;;;;2.75;2.50;;;;;;;31.85;40.69;100325.47;5053066;28;20189;-68
2021/07/28 10:19:12;;;;;;;2.47;2.28;;;;;;;31.77;40.21;100315.59;5052829;28;20190;-70
2021/07/28 10:21:50;;;;;;;2.55;2.13;;;;;;;31.86;40.17;100313.25;5052641;28;20217;-70
2021/07/28 10:24:18;;;;;;;3.85;2.33;;;;;;;31.38;40.26;100320.22;5052943;28;20277;-69
2021/07/28 10:26:51;;;;;;;2.60;2.40;;;;;;;31.32;40.25;100327.59;5052722;28;20205;-70
2021/07/28 10:29:25;;;;;;;3.05;2.55;;;;;;;30.83;40.23;100316.09;5052536;28;20275;-70
2021/07/28 10:31:55;;;;;;;2.85;2.58;;;;;;;31.03;41.14;100329.53;5045156;28;20202;-68
2021/07/28 10:34:26;;;;;;;3.53;2.60;;;;;;;31.09;41.20;100320.22;5051884;28;20742;-69
2021/07/28 10:36:58;;;;;;;2.33;2.13;;;;;;;30.74;40.97;100325.94;5050946;28;20634;-68
2021/07/28 10:39:37;;;;;;;2.30;2.10;;;;;;;30.32;40.84;100324.44;5050776;28;20583;-69
2021/07/28 10:42:08;;;;;;;4.05;2.47;;;;;;;30.16;41.13;100323.25;5050072;28;20426;-68
2021/07/28 10:45:06;;;;;;;3.50;2.60;;;;;;;30.13;40.45;100324.59;5050899;28;20228;-69
2021/07/28 10:47:35;;;;;;;2.78;2.58;;;;;;;30.06;41.65;100315.56;5048871;28;20233;-68
2021/07/28 10:50:05;;;;;;;3.00;2.60;;;;;;;30.12;41.89;100311.81;5051126;28;20690;-68
2021/07/28 10:52:41;;;;;;;2.88;2.58;;;;;;;30.14;42.13;100306.88;5050660;28;20276;-67
2021/07/28 10:55:24;;;;;;;2.80;2.38;;;;;;;30.11;42.37;100303.75;5050188;28;20205;-68
2021/07/28 10:58:24;;;;;;;3.83;2.63;;;;;;;30.05;41.59;100294.50;5051571;28;20577;-68
2021/07/28 11:00:55;;;;;;;2.90;2.60;;;;;;;29.80;43.03;100297.47;5051703;28;20190;-67
2021/07/28 11:03:36;;;;;;;3.35;3.05;;;;;;;29.69;42.53;100223.56;5050496;28;20229;-69
2021/07/28 11:06:29;;;;;;;3.83;2.90;;;;;;;30.26;43.02;100288.28;5047761;28;20268;-67
2021/07/28 11:09:18;;;;;;;3.35;2.90;;;;;;;30.15;43.05;100277.25;5051622;28;20203;-68
2021/07/28 11:11:50;;;;;;;3.47;3.00;;;;;;;30.40;43.24;100283.34;5050026;28;20255;-68
2021/07/28 11:14:19;;;;;;;3.60;3.00;;;;;;;30.40;43.26;100263.94;5050557;28;20213;-68
2021/07/28 11:16:55;;;;;;;3.75;2.92;;;;;;;30.31;43.84;100289.47;5044379;28;20194;-69
2021/07/28 11:19:23;;;;;;;3.72;3.10;;;;;;;30.12;44.08;100284.13;5047775;28;20314;-69
2021/07/28 11:21:51;;;;;;;3.92;3.22;;;;;;;30.02;43.93;100283.03;5045027;28;21005;-70
2021/07/28 11:24:20;;;;;;;3.65;2.90;;;;;;;29.67;44.57;100281.09;5041887;28;20205;-68
2021/07/28 11:26:48;;;;;;;4.40;2.90;;;;;;;29.64;45.02;100278.81;5041624;28;20202;-68
2021/07/28 11:29:19;;;;;;;3.70;3.20;;;;;;;29.64;44.80;100276.03;5041261;28;20234;-68
2021/07/28 11:31:53;;;;;;;4.10;3.25;;;;;;;29.41;45.52;100281.56;5040170;28;20208;-69
2021/07/28 11:34:57;;;;;;;4.45;2.90;;;;;;;29.48;45.25;100277.63;5041150;28;20428;-68
2021/07/28 11:37:26;;;;;;;3.15;2.85;;;;;;;29.64;44.97;100264.97;5041879;28;20498;-68